createdAt,value
2023-02-03T00:01:50.591Z,101948.31
2023-02-03T00:04:17.904Z,101951.00
2023-02-03T00:06:45.627Z,101951.94
2023-02-03T00:09:13.129Z,101965.38
2023-02-03T00:11:40.496Z,101956.47
2023-02-03T00:14:08.077Z,101965.50
2023-02-03T00:16:35.927Z,101956.47
2023-02-03T00:19:03.787Z,101970.88
2023-02-03T00:21:31.140Z,101969.19
2023-02-03T00:23:58.403Z,101973.69
2023-02-03T00:26:26.118Z,101963.88
2023-02-03T00:28:53.416Z,101967.56
2023-02-03T00:31:22.911Z,101957.66
2023-02-03T00:33:57.768Z,101950.56
2023-02-03T00:36:26.277Z,101962.19
2023-02-03T00:38:54.270Z,101952.41
2023-02-03T00:41:21.985Z,101958.75
2023-02-03T00:43:49.982Z,101961.44
2023-02-03T00:46:17.313Z,101963.25
2023-02-03T00:48:44.668Z,101965.94
2023-02-03T00:51:13.622Z,101958.84
2023-02-03T00:53:40.837Z,101966.91
2023-02-03T00:56:12.654Z,101963.34
2023-02-03T00:58:40.875Z,101961.53
2023-02-03T01:01:08.521Z,101964.22
2023-02-03T01:03:35.934Z,101970.56
2023-02-03T01:06:19.043Z,101965.19
2023-02-03T01:08:48.090Z,101958.09
2023-02-03T01:11:18.320Z,101966.16
2023-02-03T01:13:45.833Z,101959.94
2023-02-03T01:16:15.678Z,101968.00
2023-02-03T01:18:44.079Z,101969.78
2023-02-03T01:21:14.221Z,101966.25
2023-02-03T01:23:41.918Z,101970.78
2023-02-03T01:26:12.522Z,101971.63
2023-02-03T01:28:40.453Z,101957.34
2023-02-03T01:31:15.864Z,101961.84
2023-02-03T01:33:46.296Z,101965.41
2023-02-03T01:36:15.196Z,101967.34
2023-02-03T01:38:42.712Z,101975.41
2023-02-03T01:41:12.980Z,101977.25
2023-02-03T01:43:43.039Z,101979.94
2023-02-03T01:46:19.633Z,101983.47
2023-02-03T01:48:46.968Z,101987.09
2023-02-03T01:51:14.349Z,101983.56
2023-02-03T01:53:42.106Z,101986.25
2023-02-03T01:56:09.768Z,101976.47
2023-02-03T01:58:41.159Z,101976.59
2023-02-03T02:01:08.623Z,101977.44
2023-02-03T02:03:44.432Z,101977.44
2023-02-03T02:06:14.185Z,101974.75
2023-02-03T02:08:46.148Z,101976.59
2023-02-03T02:11:13.573Z,101964.97
2023-02-03T02:13:43.497Z,101964.09
2023-02-03T02:16:15.983Z,101964.09
2023-02-03T02:19:19.886Z,101969.47
2023-02-03T02:21:52.800Z,101958.72
2023-02-03T02:24:38.613Z,101958.72
2023-02-03T02:27:20.108Z,101962.38
2023-02-03T02:30:05.516Z,101956.16
2023-02-03T02:32:48.237Z,101957.00
2023-02-03T02:35:24.783Z,101962.38
2023-02-03T02:38:02.579Z,101970.44
2023-02-03T02:40:46.701Z,101962.38
2023-02-03T02:43:47.692Z,101961.53
2023-02-03T02:46:20.807Z,101974.97
2023-02-03T02:48:59.254Z,101979.47
2023-02-03T02:51:29.810Z,101983.03
2023-02-03T02:54:00.990Z,101986.69
2023-02-03T02:56:31.712Z,101984.84
2023-02-03T02:59:02.256Z,101992.91
2023-02-03T03:01:29.625Z,101983.13
2023-02-03T03:03:59.645Z,101988.50
2023-02-03T03:06:33.882Z,101978.72
2023-02-03T03:09:12.186Z,101978.72
2023-02-03T03:11:58.185Z,101979.69
2023-02-03T03:14:29.896Z,101981.50
2023-02-03T03:17:01.959Z,101986.75
2023-02-03T03:19:34.673Z,101991.41
2023-02-03T03:22:05.972Z,101989.56
2023-02-03T03:24:46.331Z,101987.75
2023-02-03T03:27:19.205Z,101995.06
2023-02-03T03:30:11.908Z,101995.06
2023-02-03T03:32:39.753Z,101997.75
2023-02-03T03:35:08.040Z,102000.44
2023-02-03T03:37:44.879Z,102005.81
2023-02-03T03:40:27.828Z,102002.22
2023-02-03T03:43:01.389Z,102007.69
2023-02-03T03:45:34.555Z,102007.69
2023-02-03T03:48:04.468Z,102005.00
2023-02-03T03:50:37.035Z,102010.38
2023-02-03T03:53:07.373Z,102006.72
2023-02-03T03:55:37.217Z,101993.41
2023-02-03T03:58:09.478Z,102008.66
2023-02-03T04:00:40.274Z,102009.53
2023-02-03T04:03:14.273Z,102018.56
2023-02-03T04:05:42.803Z,102010.50
2023-02-03T04:08:10.165Z,102013.19
2023-02-03T04:10:41.104Z,102021.22
2023-02-03T04:13:10.229Z,102025.75
2023-02-03T04:15:38.172Z,102027.47
2023-02-03T04:18:05.774Z,102021.22
2023-02-03T04:20:33.324Z,102010.50
2023-02-03T04:23:00.724Z,102023.06
2023-02-03T04:25:27.991Z,102022.19
2023-02-03T04:27:55.516Z,102015.94
2023-02-03T04:30:23.122Z,102021.31
2023-02-03T04:32:50.378Z,102020.47
2023-02-03T04:35:17.843Z,102025.84
2023-02-03T04:37:45.618Z,102024.00
2023-02-03T04:40:13.524Z,102038.41
2023-02-03T04:42:41.476Z,102041.09
2023-02-03T04:45:10.459Z,102051.84
2023-02-03T04:47:39.770Z,102048.28
2023-02-03T04:50:07.656Z,102054.53
2023-02-03T04:52:34.887Z,102044.75
2023-02-03T04:55:04.005Z,102047.44
2023-02-03T04:57:31.516Z,102040.34
2023-02-03T04:59:58.927Z,102036.78
2023-02-03T05:02:26.209Z,102045.72
2023-02-03T05:04:53.777Z,102060.94
2023-02-03T05:07:20.997Z,102060.94
2023-02-03T05:09:48.229Z,102051.19
2023-02-03T05:12:15.527Z,102042.25
2023-02-03T05:14:42.820Z,102042.25
2023-02-03T05:17:10.043Z,102043.25
2023-02-03T05:19:37.280Z,102040.56
2023-02-03T05:22:04.597Z,102041.53
2023-02-03T05:24:31.880Z,102038.84
2023-02-03T05:26:59.116Z,102043.25
2023-02-03T05:29:26.393Z,102034.31
2023-02-03T05:31:53.735Z,102028.09
2023-02-03T05:34:21.013Z,102006.63
2023-02-03T05:36:48.290Z,101994.91
2023-02-03T05:39:15.572Z,101985.22
2023-02-03T05:41:57.304Z,101986.06
2023-02-03T05:44:27.757Z,102004.00
2023-02-03T05:46:58.270Z,102013.91
2023-02-03T05:49:25.749Z,102019.25
2023-02-03T05:51:54.995Z,102020.25
2023-02-03T05:54:22.378Z,102028.28
2023-02-03T05:56:49.798Z,102030.97
2023-02-03T05:59:17.184Z,102024.75
2023-02-03T06:01:44.429Z,102028.28
2023-02-03T06:04:11.827Z,102030.13
2023-02-03T06:06:39.225Z,102031.06
2023-02-03T06:09:08.335Z,102029.28
2023-02-03T06:11:36.333Z,102031.94
2023-02-03T06:14:04.436Z,102037.31
2023-02-03T06:16:31.718Z,102020.31
2023-02-03T06:19:00.805Z,102031.19
2023-02-03T06:21:28.611Z,102037.41
2023-02-03T06:23:56.617Z,102041.94
2023-02-03T06:26:25.139Z,102048.25
2023-02-03T06:28:52.627Z,102065.25
2023-02-03T06:31:20.111Z,102077.03
2023-02-03T06:33:48.298Z,102078.78
2023-02-03T06:36:15.702Z,102071.66
2023-02-03T06:38:42.987Z,102081.53
2023-02-03T06:41:10.225Z,102077.16
2023-02-03T06:43:37.530Z,102074.34
2023-02-03T06:46:04.894Z,102063.59
2023-02-03T06:48:32.302Z,102038.56
2023-02-03T06:50:59.613Z,102038.56
2023-02-03T06:53:27.101Z,102054.69
2023-02-03T06:55:54.392Z,102061.03
2023-02-03T06:58:24.572Z,102068.13
2023-02-03T07:00:56.277Z,102077.16
2023-02-03T07:03:23.663Z,102067.38
2023-02-03T07:05:50.933Z,102062.88
2023-02-03T07:08:18.219Z,102053.09
2023-02-03T07:10:45.534Z,102058.47
2023-02-03T07:13:12.889Z,102051.25
2023-02-03T07:15:40.982Z,102059.31
2023-02-03T07:18:08.344Z,102066.53
2023-02-03T07:20:36.087Z,102069.22
2023-02-03T07:23:04.421Z,102071.88
2023-02-03T07:25:31.756Z,102081.66
2023-02-03T07:27:59.035Z,102086.25
2023-02-03T07:30:26.887Z,102085.31
2023-02-03T07:32:54.312Z,102092.47
2023-02-03T07:35:22.035Z,102093.44
2023-02-03T07:37:49.310Z,102095.16
2023-02-03T07:40:16.965Z,102108.59
2023-02-03T07:42:45.926Z,102131.81
2023-02-03T07:45:15.549Z,102130.06
2023-02-03T07:47:43.814Z,102132.88
2023-02-03T07:50:12.123Z,102137.50
2023-02-03T07:52:39.880Z,102142.88
2023-02-03T07:55:07.794Z,102152.84
2023-02-03T07:57:35.029Z,102164.53
2023-02-03T08:00:02.649Z,102171.63
2023-02-03T08:02:40.058Z,102166.38
2023-02-03T08:05:08.031Z,102167.31
2023-02-03T08:07:35.866Z,102187.00
2023-02-03T08:10:03.552Z,102193.22
2023-02-03T08:12:30.823Z,102206.53
2023-02-03T08:14:58.133Z,102209.22
2023-02-03T08:17:25.681Z,102228.03
2023-02-03T08:19:53.071Z,102211.91
2023-02-03T08:22:20.413Z,102188.59
2023-02-03T08:24:48.163Z,102210.94
2023-02-03T08:27:17.848Z,102238.56
2023-02-03T08:29:46.276Z,102238.56
2023-02-03T08:32:22.068Z,102211.72
2023-02-03T08:34:50.061Z,102241.16
2023-02-03T08:37:19.585Z,102244.69
2023-02-03T08:39:47.550Z,102218.69
2023-02-03T08:42:14.878Z,102221.38
2023-02-03T08:44:44.108Z,102242.78
2023-02-03T08:47:12.513Z,102263.31
2023-02-03T08:49:39.999Z,102259.66
2023-02-03T08:52:10.386Z,102225.69
2023-02-03T08:54:38.169Z,102219.38
2023-02-03T08:57:06.402Z,102228.28
2023-02-03T08:59:36.193Z,102236.34
2023-02-03T09:02:05.242Z,102218.44
2023-02-03T09:04:33.701Z,102222.81
2023-02-03T09:07:02.699Z,102209.59
2023-02-03T09:09:31.209Z,102203.56
2023-02-03T09:12:02.062Z,102196.66
2023-02-03T09:14:30.399Z,102194.38
2023-02-03T09:16:57.795Z,102196.28
2023-02-03T09:19:25.424Z,102188.16
2023-02-03T09:21:52.750Z,102173.66
2023-02-03T09:24:20.206Z,102170.88
2023-02-03T09:26:47.465Z,102168.09
2023-02-03T09:29:14.761Z,102171.50
2023-02-03T09:31:42.157Z,102169.72
2023-02-03T09:34:09.755Z,102171.44
2023-02-03T09:36:37.669Z,102178.53
2023-02-03T09:39:05.087Z,102188.28
2023-02-03T09:42:14.831Z,102179.31
2023-02-03T09:44:42.003Z,102173.94
2023-02-03T09:47:20.809Z,102167.59
2023-02-03T09:49:53.593Z,102169.41
2023-02-03T09:52:24.922Z,102166.63
2023-02-03T09:55:10.654Z,102168.34
2023-02-03T09:57:45.911Z,102177.25
2023-02-03T10:00:28.438Z,102165.56
2023-02-03T10:03:08.025Z,102162.03
2023-02-03T10:06:06.723Z,102161.91
2023-02-03T10:09:05.142Z,102173.50
2023-02-03T10:11:55.562Z,102176.31
2023-02-03T10:15:07.289Z,102179.00
2023-02-03T10:17:41.349Z,102179.94
2023-02-03T10:20:08.607Z,102173.72
2023-02-03T10:22:48.154Z,102162.97
2023-02-03T10:25:38.607Z,102170.09
2023-02-03T10:28:18.592Z,102168.34
2023-02-03T10:30:54.529Z,102170.16
2023-02-03T10:33:22.211Z,102169.31
2023-02-03T10:35:58.350Z,102167.47
2023-02-03T10:38:52.455Z,102172.09
2023-02-03T10:41:20.806Z,102174.69
2023-02-03T10:43:54.842Z,102173.94
2023-02-03T10:46:29.738Z,102174.69
2023-02-03T10:48:57.889Z,102177.38
2023-02-03T10:51:27.720Z,102172.00
2023-02-03T10:53:55.205Z,102165.75
2023-02-03T10:56:29.547Z,102179.19
2023-02-03T10:58:59.399Z,102172.84
2023-02-03T11:01:29.130Z,102165.75
2023-02-03T11:04:05.800Z,102153.19
2023-02-03T11:06:34.200Z,102155.88
2023-02-03T11:09:01.569Z,102141.47
2023-02-03T11:11:32.565Z,102137.09
2023-02-03T11:14:02.774Z,102143.31
2023-02-03T11:16:33.667Z,102146.84
2023-02-03T11:19:07.444Z,102136.13
2023-02-03T11:21:37.484Z,102134.41
2023-02-03T11:24:24.256Z,102125.38
2023-02-03T11:26:56.799Z,102115.50
2023-02-03T11:29:31.467Z,102121.63
2023-02-03T11:32:03.177Z,102110.78
2023-02-03T11:34:35.283Z,102108.09
2023-02-03T11:37:45.375Z,102112.53
2023-02-03T11:40:15.560Z,102108.94
2023-02-03T11:42:46.007Z,102105.31
2023-02-03T11:45:30.009Z,102098.00
2023-02-03T11:48:31.032Z,102098.88
2023-02-03T11:51:36.050Z,102099.72
2023-02-03T11:54:36.352Z,102096.97
2023-02-03T11:57:09.792Z,102088.91
2023-02-03T11:59:45.575Z,102083.59
2023-02-03T12:02:54.988Z,102084.50
2023-02-03T12:05:43.195Z,102078.25
2023-02-03T12:08:25.809Z,102076.53
2023-02-03T12:11:04.955Z,102062.25
2023-02-03T12:14:07.297Z,102047.19
2023-02-03T12:16:56.475Z,102049.78
2023-02-03T12:19:59.200Z,102033.66
2023-02-03T12:22:45.143Z,102027.44
2023-02-03T12:25:52.667Z,102008.63
2023-02-03T12:28:32.451Z,102005.09
2023-02-03T12:31:11.026Z,102002.41
2023-02-03T12:33:44.334Z,101996.16
2023-02-03T12:36:18.872Z,101987.25
2023-02-03T12:39:27.820Z,101977.34
2023-02-03T12:42:10.515Z,101978.31
2023-02-03T12:44:47.239Z,101971.13
2023-02-03T12:47:26.427Z,101957.69
2023-02-03T12:49:59.645Z,101952.31
2023-02-03T12:52:42.359Z,101949.66
2023-02-03T12:55:23.530Z,101947.81
2023-02-03T12:57:58.771Z,101955.00
2023-02-03T13:00:47.782Z,101939.88
2023-02-03T13:03:28.843Z,101940.72
2023-02-03T13:06:24.856Z,101936.22
2023-02-03T13:09:07.005Z,101919.38
2023-02-03T13:11:44.206Z,101910.34
2023-02-03T13:14:24.019Z,101900.56
2023-02-03T13:17:15.673Z,101892.50
2023-02-03T13:19:48.972Z,101881.78
2023-02-03T13:22:17.492Z,101879.94
2023-02-03T13:24:56.803Z,101875.41
2023-02-03T13:27:44.324Z,101880.78
2023-02-03T13:30:18.495Z,101870.06
2023-02-03T13:32:56.495Z,101857.47
2023-02-03T13:35:47.868Z,101859.19
2023-02-03T13:38:58.996Z,101863.72
2023-02-03T13:41:40.560Z,101850.28
2023-02-03T13:44:15.449Z,101844.06
2023-02-03T13:46:42.937Z,101842.22
2023-02-03T13:49:24.018Z,101840.50
2023-02-03T13:51:51.795Z,101830.63
2023-02-03T13:54:38.885Z,101826.09
2023-02-03T13:57:22.112Z,101831.47
2023-02-03T13:59:49.913Z,101839.66
2023-02-03T14:02:20.300Z,101846.75
2023-02-03T14:04:48.541Z,101852.09
2023-02-03T14:07:39.553Z,101844.06
2023-02-03T14:10:12.786Z,101835.13
2023-02-03T14:12:52.214Z,101829.78
2023-02-03T14:15:25.842Z,101831.72
2023-02-03T14:17:53.305Z,101820.09
2023-02-03T14:20:29.501Z,101811.19
2023-02-03T14:23:05.547Z,101818.28
2023-02-03T14:26:00.205Z,101820.09
2023-02-03T14:28:45.035Z,101816.56
2023-02-03T14:31:17.391Z,101821.94
2023-02-03T14:34:01.559Z,101835.34
2023-02-03T14:36:34.969Z,101834.41
2023-02-03T14:39:17.504Z,101835.25
2023-02-03T14:42:15.211Z,101831.72
2023-02-03T14:45:03.585Z,101827.28
2023-02-03T14:47:33.886Z,101829.03
2023-02-03T14:50:04.088Z,101842.47
2023-02-03T14:53:05.483Z,101830.84
2023-02-03T14:55:52.218Z,101827.28
2023-02-03T14:58:43.061Z,101821.94
2023-02-03T15:01:25.692Z,101813.00
2023-02-03T15:04:11.058Z,101815.69
2023-02-03T15:06:49.051Z,101817.53
2023-02-03T15:09:37.859Z,101818.38
2023-02-03T15:12:25.977Z,101807.75
2023-02-03T15:14:54.232Z,101810.31
2023-02-03T15:17:25.831Z,101811.31
2023-02-03T15:19:53.735Z,101801.53
2023-02-03T15:22:30.414Z,101797.88
2023-02-03T15:25:00.605Z,101790.78
2023-02-03T15:27:30.359Z,101781.88
2023-02-03T15:30:00.723Z,101782.84
2023-02-03T15:32:39.912Z,101789.94
2023-02-03T15:35:12.292Z,101794.44
2023-02-03T15:37:50.669Z,101780.16
2023-02-03T15:40:23.426Z,101772.09
2023-02-03T15:43:22.939Z,101781.00
2023-02-03T15:45:57.700Z,101771.16
2023-02-03T15:48:47.235Z,101765.78
2023-02-03T15:51:31.726Z,101769.41
2023-02-03T15:54:15.746Z,101764.16
2023-02-03T15:56:54.773Z,101762.31
2023-02-03T15:59:27.420Z,101766.00
2023-02-03T16:01:54.947Z,101767.69
2023-02-03T16:04:25.082Z,101763.19
2023-02-03T16:06:55.578Z,101762.31
2023-02-03T16:09:49.121Z,101751.59
2023-02-03T16:12:26.899Z,101762.31
2023-02-03T16:14:55.927Z,101761.47
2023-02-03T16:17:33.679Z,101764.16
2023-02-03T16:20:12.880Z,101757.81
2023-02-03T16:22:42.522Z,101764.03
2023-02-03T16:25:23.675Z,101761.34
2023-02-03T16:28:32.611Z,101757.81
2023-02-03T16:31:32.831Z,101746.97
2023-02-03T16:34:20.454Z,101748.16
2023-02-03T16:37:06.232Z,101744.94
2023-02-03T16:39:51.921Z,101744.84
2023-02-03T16:42:39.447Z,101752.91
2023-02-03T16:45:33.299Z,101745.69
2023-02-03T16:48:19.177Z,101747.41
2023-02-03T16:50:53.992Z,101751.06
2023-02-03T16:53:27.216Z,101759.13
2023-02-03T16:55:57.209Z,101758.16
2023-02-03T16:58:25.299Z,101769.75
2023-02-03T17:00:54.286Z,101767.91
2023-02-03T17:03:25.842Z,101774.13
2023-02-03T17:05:53.921Z,101769.75
2023-02-03T17:08:22.650Z,101769.75
2023-02-03T17:10:50.485Z,101767.91
2023-02-03T17:13:19.980Z,101755.34
2023-02-03T17:15:49.985Z,101751.78
2023-02-03T17:18:20.315Z,101749.13
2023-02-03T17:20:49.200Z,101749.13
2023-02-03T17:23:17.032Z,101747.28
2023-02-03T17:25:46.285Z,101732.16
2023-02-03T17:28:14.574Z,101737.53
2023-02-03T17:30:42.287Z,101744.72
2023-02-03T17:33:13.135Z,101744.59
2023-02-03T17:35:42.554Z,101738.50
2023-02-03T17:38:12.087Z,101733.97
2023-02-03T17:54:38.863Z,101706.28
2023-02-03T17:57:06.292Z,101711.66
2023-02-03T17:59:35.561Z,101700.06
2023-02-03T18:02:02.892Z,101689.31
2023-02-03T18:04:30.508Z,101689.31
2023-02-03T18:06:57.927Z,101696.41
2023-02-03T18:09:25.282Z,101698.22
2023-02-03T18:11:52.553Z,101704.56
2023-02-03T18:14:19.850Z,101699.19
2023-02-03T18:16:47.417Z,101693.84
2023-02-03T18:19:16.166Z,101700.06
2023-02-03T18:21:43.988Z,101702.75
2023-02-03T18:24:13.545Z,101701.88
2023-02-03T18:26:49.797Z,101709.09
2023-02-03T18:29:17.621Z,101709.09
2023-02-03T18:31:45.167Z,101719.81
2023-02-03T18:34:12.763Z,101709.94
2023-02-03T18:39:09.328Z,101698.34
2023-02-03T18:41:39.023Z,101702.84
2023-02-03T18:44:06.380Z,101702.94
2023-02-03T18:46:34.213Z,101693.06
2023-02-03T18:49:01.832Z,101698.44
2023-02-03T18:51:29.077Z,101685.00
2023-02-03T18:53:58.188Z,101683.19
2023-02-03T18:56:28.079Z,101688.56
2023-02-03T18:58:55.293Z,101674.28
2023-02-03T19:01:25.034Z,101684.16
2023-02-03T19:03:54.622Z,101678.78
2023-02-03T19:06:22.765Z,101675.13
2023-02-03T19:08:50.891Z,101690.38
2023-02-03T19:11:18.571Z,101685.88
2023-02-03T19:13:49.352Z,101669.75
2023-02-03T19:16:17.918Z,101675.13
2023-02-03T19:18:45.516Z,101658.16
2023-02-03T19:21:13.855Z,101660.00
2023-02-03T19:23:41.930Z,101658.16
2023-02-03T19:26:10.231Z,101652.78
2023-02-03T19:28:38.591Z,101650.25
2023-02-03T19:31:15.201Z,101642.19
2023-02-03T19:33:43.137Z,101645.84
2023-02-03T19:36:11.323Z,101638.66
2023-02-03T19:38:38.918Z,101643.16
2023-02-03T19:41:07.714Z,101645.84
2023-02-03T19:43:35.057Z,101641.34
2023-02-03T19:46:02.585Z,101632.44
2023-02-03T19:48:37.339Z,101627.06
2023-02-03T19:51:04.862Z,101620.78
2023-02-03T19:53:32.240Z,101619.94
2023-02-03T19:55:59.556Z,101608.34
2023-02-03T19:58:29.231Z,101601.28
2023-02-03T20:00:56.881Z,101602.13
2023-02-03T20:03:24.606Z,101604.69
2023-02-03T20:05:54.454Z,101598.59
2023-02-03T20:08:27.919Z,101598.59
2023-02-03T20:10:55.256Z,101598.59
2023-02-03T20:13:22.554Z,101604.81
2023-02-03T20:15:49.979Z,101603.97
2023-02-03T20:18:17.333Z,101592.38
2023-02-03T20:20:53.041Z,101590.53
2023-02-03T20:23:20.348Z,101587.00
2023-02-03T20:25:54.702Z,101586.16
2023-02-03T20:28:26.214Z,101567.34
2023-02-03T20:30:56.711Z,101552.09
2023-02-03T20:33:27.739Z,101530.63
2023-02-03T20:35:56.417Z,101529.78
2023-02-03T20:38:24.101Z,101524.41
2023-02-03T20:40:51.460Z,101528.94
2023-02-03T20:43:21.885Z,101524.41
2023-02-03T20:45:49.762Z,101502.09
2023-02-03T20:48:19.891Z,101491.34
2023-02-03T20:50:47.659Z,101494.88
2023-02-03T20:53:21.629Z,101482.41
2023-02-03T20:55:50.341Z,101478.03
2023-02-03T20:58:24.110Z,101479.72
2023-02-03T21:00:52.487Z,101471.69
2023-02-03T21:03:38.882Z,101456.44
2023-02-03T21:06:17.615Z,101445.94
2023-02-03T21:08:46.702Z,101453.88
2023-02-03T21:11:19.468Z,101449.47
2023-02-03T21:13:49.711Z,101436.91
2023-02-03T21:16:25.114Z,101435.06
2023-02-03T21:18:55.029Z,101439.59
2023-02-03T21:21:42.332Z,101447.66
2023-02-03T21:24:37.818Z,101438.75
2023-02-03T21:27:22.212Z,101444.09
2023-02-03T21:29:50.132Z,101436.06
2023-02-03T21:32:17.351Z,101435.22
2023-02-03T21:34:45.740Z,101433.38
2023-02-03T21:37:31.867Z,101429.84
2023-02-03T21:39:59.216Z,101435.22
2023-02-03T21:42:43.443Z,101439.72
2023-02-03T21:45:19.899Z,101445.94
2023-02-03T21:47:49.429Z,101443.25
2023-02-03T21:50:34.264Z,101437.88
2023-02-03T21:53:07.683Z,101454.00
2023-02-03T21:55:40.115Z,101451.31
2023-02-03T21:58:26.173Z,101454.00
2023-02-03T22:00:55.768Z,101461.06
2023-02-03T22:03:25.415Z,101460.34
2023-02-03T22:06:01.391Z,101457.53
2023-02-03T22:08:28.639Z,101459.47
2023-02-03T22:10:55.910Z,101453.25
2023-02-03T22:13:23.217Z,101462.13
2023-02-03T22:15:50.566Z,101471.09
2023-02-03T22:18:17.875Z,101477.41
2023-02-03T22:20:45.153Z,101479.13
2023-02-03T22:23:12.554Z,101479.13
2023-02-03T22:25:40.054Z,101484.38
2023-02-03T22:28:07.499Z,101483.53
2023-02-03T22:30:34.820Z,101484.25
2023-02-03T22:33:02.253Z,101481.56
2023-02-03T22:35:30.509Z,101483.41
2023-02-03T22:37:58.007Z,101496.94
2023-02-03T22:40:25.674Z,101527.53
2023-02-03T22:42:53.168Z,101526.91
2023-02-03T22:45:20.545Z,101515.44
2023-02-03T22:47:48.193Z,101514.47
2023-02-03T22:50:17.438Z,101512.53
2023-02-03T22:52:47.744Z,101517.78
2023-02-03T22:55:14.937Z,101514.03
2023-02-03T22:57:42.441Z,101518.50
2023-02-03T23:00:13.642Z,101500.59
2023-02-03T23:02:41.030Z,101516.72
2023-02-03T23:05:10.307Z,101522.94
2023-02-03T23:07:37.619Z,101514.88
2023-02-03T23:10:06.208Z,101514.75
2023-02-03T23:12:33.882Z,101515.72
2023-02-03T23:15:01.560Z,101513.03
2023-02-03T23:17:29.102Z,101495.22
2023-02-03T23:19:56.467Z,101497.91
2023-02-03T23:22:23.719Z,101507.69
2023-02-03T23:24:51.016Z,101509.38
2023-02-03T23:27:18.233Z,101520.13
2023-02-03T23:29:45.473Z,101525.47
2023-02-03T23:32:12.679Z,101513.91
2023-02-03T23:34:58.112Z,101514.75
2023-02-03T23:37:25.388Z,101510.34
2023-02-03T23:39:52.659Z,101526.34
2023-02-03T23:42:19.892Z,101528.03
2023-02-03T23:44:47.197Z,101525.47
2023-02-03T23:47:14.704Z,101517.44
2023-02-03T23:49:42.246Z,101514.75
2023-02-03T23:52:09.526Z,101520.13
2023-02-03T23:54:36.782Z,101521.09
2023-02-03T23:57:04.870Z,101529.88
2023-02-03T23:59:32.127Z,101520.97
